Time;durP1;ratioP1;P1;durP2;ratioP2;P2;SDS_P1;SDS_P2;PMS_P1;PMS_P2;Temp;Humidity;BMP_temperature;BMP_pressure;BME280_temperature;BME280_humidity;BME280_pressure;Samples;Min_cycle;Max_cycle;Signal;HPM_P1;HPM_P2
2021/06/26 00:01:36;;;;;;;7.60;4.90;;;;;;;23.03;57.71;99995.38;5094320;28;20044;-74
2021/06/26 00:04:05;;;;;;;6.68;4.72;;;;;;;22.95;58.06;100000.84;5094518;28;20050;-74
2021/06/26 00:06:34;;;;;;;8.20;5.00;;;;;;;22.88;58.33;100008.88;5093547;28;20122;-74
2021/06/26 00:09:03;;;;;;;6.80;4.72;;;;;;;22.72;59.06;100009.78;5094236;28;20078;-73
2021/06/26 00:11:33;;;;;;;5.88;4.70;;;;;;;22.70;59.28;100006.38;5093877;28;20067;-74
2021/06/26 00:14:02;;;;;;;6.80;4.88;;;;;;;22.71;59.20;100013.50;5094185;28;20039;-74
2021/06/26 00:16:32;;;;;;;5.88;4.63;;;;;;;22.61;59.48;100012.88;5093678;28;20112;-73
2021/06/26 00:19:01;;;;;;;6.80;5.03;;;;;;;22.56;59.70;100015.25;5094368;28;20040;-74
2021/06/26 00:21:31;;;;;;;6.75;5.00;;;;;;;22.47;59.98;100013.59;5093968;28;20043;-72
2021/06/26 00:23:59;;;;;;;6.35;4.88;;;;;;;22.40;60.36;100015.34;5094065;28;20044;-72
2021/06/26 00:26:28;;;;;;;9.45;5.57;;;;;;;22.34;60.82;100026.88;5093726;28;20040;-72
2021/06/26 00:28:57;;;;;;;8.38;5.20;;;;;;;22.31;60.98;100028.09;5093837;28;20486;-71
2021/06/26 00:31:25;;;;;;;6.55;4.97;;;;;;;22.12;61.53;100037.47;5093628;28;20047;-74
2021/06/26 00:33:55;;;;;;;7.10;5.53;;;;;;;22.16;61.33;100036.06;5093867;28;20040;-73
2021/06/26 00:36:23;;;;;;;8.10;5.55;;;;;;;22.11;61.89;100043.91;5093604;28;20409;-71
2021/06/26 00:38:51;;;;;;;8.10;5.30;;;;;;;22.04;61.91;100042.84;5075535;28;20126;-71
2021/06/26 00:41:19;;;;;;;8.55;5.55;;;;;;;21.99;62.47;100045.22;5093251;28;20048;-74
2021/06/26 00:43:48;;;;;;;7.28;5.72;;;;;;;21.97;62.22;100052.69;5093616;28;20040;-75
2021/06/26 00:46:16;;;;;;;9.48;6.15;;;;;;;21.93;62.45;100048.63;5093088;28;20044;-76
2021/06/26 00:48:44;;;;;;;9.30;6.05;;;;;;;21.95;62.48;100049.31;5093766;28;20439;-73
2021/06/26 00:51:16;;;;;;;9.50;6.18;;;;;;;21.85;63.01;100067.66;5093189;28;20047;-77
2021/06/26 00:53:47;;;;;;;7.75;5.70;;;;;;;21.93;62.75;100051.34;5093278;28;20044;-77
2021/06/26 00:56:15;;;;;;;8.43;6.05;;;;;;;21.85;62.86;100054.91;5093324;28;20085;-75
2021/06/26 00:58:43;;;;;;;8.70;5.68;;;;;;;21.92;63.08;100055.09;5093586;28;20071;-78
2021/06/26 01:01:12;;;;;;;7.28;5.95;;;;;;;21.94;62.93;100053.06;5093406;28;20043;-77
2021/06/26 01:03:42;;;;;;;7.97;6.20;;;;;;;21.98;62.57;100047.09;5093295;28;20060;-74
2021/06/26 01:06:11;;;;;;;8.10;5.68;;;;;;;21.83;63.60;100058.81;5092962;28;20471;-75
2021/06/26 01:08:40;;;;;;;7.50;5.80;;;;;;;21.89;63.19;100049.97;5093243;28;20067;-76
2021/06/26 01:11:09;;;;;;;7.75;5.82;;;;;;;21.92;63.34;100055.09;5093201;28;20137;-77
2021/06/26 01:13:37;;;;;;;8.15;5.72;;;;;;;21.84;63.48;100055.09;5092915;28;20460;-77
2021/06/26 01:16:06;;;;;;;7.47;5.30;;;;;;;21.78;64.11;100055.75;5092943;28;20044;-77
2021/06/26 01:18:35;;;;;;;7.88;5.63;;;;;;;21.76;64.14;100050.50;5092359;28;20054;-76
2021/06/26 01:21:03;;;;;;;6.95;5.50;;;;;;;21.69;64.24;100044.88;5093233;28;20040;-77
2021/06/26 01:23:32;;;;;;;8.30;6.40;;;;;;;21.66;64.58;100052.53;5092799;28;20043;-76
2021/06/26 01:26:01;;;;;;;8.68;5.70;;;;;;;21.65;64.59;100054.41;5074951;28;20048;-77
2021/06/26 01:28:31;;;;;;;10.18;6.15;;;;;;;21.67;64.67;100048.78;5092841;28;20101;-77
2021/06/26 01:30:59;;;;;;;8.82;5.70;;;;;;;21.55;65.21;100056.44;5092959;28;20036;-73
2021/06/26 01:33:27;;;;;;;8.13;6.53;;;;;;;21.47;65.15;100048.25;5092467;28;20101;-72
2021/06/26 01:35:55;;;;;;;8.23;6.00;;;;;;;21.39;65.45;100051.81;5093073;28;20051;-73
2021/06/26 01:38:24;;;;;;;8.70;6.13;;;;;;;21.44;65.56;100056.75;5092799;28;20040;-73
2021/06/26 01:40:54;;;;;;;8.23;6.15;;;;;;;21.34;66.21;100039.78;5092664;28;20063;-75
2021/06/26 01:43:22;;;;;;;8.73;6.60;;;;;;;21.35;66.28;100046.91;5092491;28;20055;-77
2021/06/26 01:45:50;;;;;;;8.27;6.18;;;;;;;21.39;65.89;100048.25;5092488;28;20093;-77
2021/06/26 01:48:22;;;;;;;9.15;6.30;;;;;;;21.26;66.47;100042.44;5092697;28;20043;-77
2021/06/26 01:50:52;;;;;;;9.10;6.18;;;;;;;21.26;66.33;100053.28;5092907;28;20556;-77
2021/06/26 01:53:21;;;;;;;7.60;5.93;;;;;;;21.36;66.19;100054.03;5092606;28;20149;-76
2021/06/26 01:55:52;;;;;;;8.35;6.18;;;;;;;21.30;66.42;100066.38;5092858;28;20051;-77
2021/06/26 01:58:21;;;;;;;7.68;6.30;;;;;;;21.27;66.13;100055.84;5092307;28;20052;-76
2021/06/26 02:00:49;;;;;;;8.45;6.57;;;;;;;21.23;66.42;100056.31;5074727;28;20052;-77
2021/06/26 02:03:18;;;;;;;8.55;6.50;;;;;;;21.29;66.13;100069.25;5092229;28;20047;-83
2021/06/26 02:05:46;;;;;;;7.93;6.38;;;;;;;21.17;66.83;100074.09;5092662;28;20048;-77
2021/06/26 02:08:15;;;;;;;8.98;7.03;;;;;;;21.17;67.19;100070.53;5092430;28;20052;-77
2021/06/26 02:10:43;;;;;;;7.97;6.38;;;;;;;21.18;66.97;100066.81;5092707;28;20060;-77
2021/06/26 02:13:11;;;;;;;8.90;6.97;;;;;;;21.20;66.80;100064.78;5092555;28;20446;-77
2021/06/26 02:15:41;;;;;;;9.05;7.03;;;;;;;21.21;67.10;100061.06;5092190;28;20122;-77
2021/06/26 02:18:10;;;;;;;9.07;6.70;;;;;;;21.22;66.85;100054.59;5092366;28;20048;-75
2021/06/26 02:20:38;;;;;;;9.30;6.65;;;;;;;21.24;67.14;100058.88;5092118;28;20063;-76
2021/06/26 02:23:07;;;;;;;9.30;6.85;;;;;;;21.25;67.10;100057.00;5074181;28;20048;-76
2021/06/26 02:25:35;;;;;;;9.38;7.03;;;;;;;21.23;66.98;100059.00;5092190;28;20442;-76
2021/06/26 02:28:04;;;;;;;10.27;6.57;;;;;;;21.26;67.19;100064.13;5093350;28;20048;-76
2021/06/26 02:30:34;;;;;;;10.02;7.03;;;;;;;21.28;66.52;100062.97;5096081;28;20040;-75
2021/06/26 02:33:05;;;;;;;9.73;7.10;;;;;;;21.36;66.43;100064.88;5095975;28;20040;-77
2021/06/26 02:35:33;;;;;;;11.48;7.13;;;;;;;21.31;66.70;100064.50;5095969;28;20040;-77
2021/06/26 02:38:01;;;;;;;9.82;7.00;;;;;;;21.34;66.56;100078.59;5095923;28;20433;-76
2021/06/26 02:40:31;;;;;;;9.60;7.47;;;;;;;21.40;66.52;100071.66;5095965;28;20051;-76
2021/06/26 02:43:00;;;;;;;10.50;6.85;;;;;;;21.31;66.49;100067.22;5096309;28;20052;-75
2021/06/26 02:45:28;;;;;;;8.70;6.93;;;;;;;21.23;67.15;100078.00;5095408;28;20083;-77
2021/06/26 02:47:57;;;;;;;9.88;7.70;;;;;;;21.28;66.83;100078.41;5095905;28;20032;-77
2021/06/26 02:50:26;;;;;;;10.57;7.32;;;;;;;21.31;66.69;100075.34;5095251;28;20074;-72
2021/06/26 02:52:55;;;;;;;11.20;7.45;;;;;;;21.26;67.04;100074.97;5096062;28;20431;-73
2021/06/26 02:55:23;;;;;;;9.30;7.07;;;;;;;21.24;66.92;100085.16;5095298;28;20055;-73
2021/06/26 02:57:52;;;;;;;8.27;6.97;;;;;;;21.24;67.48;100094.16;5095811;28;20043;-73
2021/06/26 03:00:22;;;;;;;12.05;7.68;;;;;;;21.24;66.85;100090.59;5095408;28;20110;-75
2021/06/26 03:02:50;;;;;;;11.07;7.50;;;;;;;21.26;67.24;100092.13;5095445;28;20449;-74
2021/06/26 03:05:19;;;;;;;10.27;7.47;;;;;;;21.27;66.99;100095.69;5095748;28;20064;-74
2021/06/26 03:07:55;;;;;;;11.57;7.90;;;;;;;21.28;66.85;100100.09;5094844;28;20051;-73
2021/06/26 03:10:24;;;;;;;12.82;7.20;;;;;;;21.17;67.51;100106.66;5095091;28;20048;-74
2021/06/26 03:12:54;;;;;;;10.73;7.47;;;;;;;21.10;67.98;100103.72;5095202;28;20453;-74
2021/06/26 03:15:25;;;;;;;13.57;7.93;;;;;;;21.18;67.34;100088.50;5094794;28;20040;-75
2021/06/26 03:17:53;;;;;;;11.27;7.60;;;;;;;21.27;67.09;100103.84;5095454;28;20467;-73
2021/06/26 03:20:24;;;;;;;11.32;7.93;;;;;;;21.13;67.87;100100.72;5094917;28;20055;-78
2021/06/26 03:22:54;;;;;;;11.48;8.05;;;;;;;21.15;67.73;100095.97;5095212;28;20050;-74
2021/06/26 03:25:22;;;;;;;13.88;8.63;;;;;;;21.07;68.12;100104.06;5094872;28;20054;-78
2021/06/26 03:27:50;;;;;;;10.48;7.50;;;;;;;21.22;67.38;100108.84;5094769;28;20044;-73
2021/06/26 03:30:19;;;;;;;12.88;8.82;;;;;;;21.20;68.01;100108.19;5094827;28;20062;-74
2021/06/26 03:32:49;;;;;;;11.45;8.18;;;;;;;21.40;67.19;100109.63;5094970;28;20040;-74
2021/06/26 03:35:17;;;;;;;11.35;7.93;;;;;;;21.50;66.60;100118.47;5095108;28;20363;-76
2021/06/26 03:37:46;;;;;;;10.65;7.70;;;;;;;22.02;64.80;100110.09;5094548;28;20050;-76
2021/06/26 03:40:15;;;;;;;11.02;7.97;;;;;;;22.76;61.74;100099.97;5094064;28;20067;-74
2021/06/26 03:42:44;;;;;;;10.77;7.85;;;;;;;23.40;59.32;100106.22;5094361;28;20043;-74
2021/06/26 03:45:15;;;;;;;10.43;7.78;;;;;;;24.15;57.10;100105.56;5094621;28;20036;-74
2021/06/26 03:47:44;;;;;;;10.85;7.43;;;;;;;24.58;55.43;100100.38;5094208;28;20575;-74
2021/06/26 03:50:13;;;;;;;9.95;7.82;;;;;;;24.69;55.08;100098.03;5094546;28;20040;-74
2021/06/26 03:52:42;;;;;;;10.93;7.63;;;;;;;25.15;53.37;100102.50;5094371;28;20038;-75
2021/06/26 03:55:10;;;;;;;11.45;7.80;;;;;;;25.14;53.54;100103.53;5094301;28;20047;-74
2021/06/26 03:57:40;;;;;;;13.15;7.57;;;;;;;25.38;52.72;100101.34;5093990;28;20044;-74
2021/06/26 04:00:10;;;;;;;8.95;6.85;;;;;;;25.35;52.28;100103.59;5094524;28;20052;-74
2021/06/26 04:02:38;;;;;;;9.30;7.70;;;;;;;25.00;53.23;100099.75;5094054;28;20402;-74
2021/06/26 04:05:07;;;;;;;9.70;6.93;;;;;;;25.80;51.33;100101.59;5094252;28;20105;-74
2021/06/26 04:07:36;;;;;;;10.95;7.30;;;;;;;25.42;52.13;100093.59;5093674;28;20402;-74
2021/06/26 04:10:05;;;;;;;10.10;7.75;;;;;;;25.81;50.79;100095.09;5092669;28;20448;-75
2021/06/26 04:12:35;;;;;;;10.90;7.90;;;;;;;25.89;50.51;100105.91;5094056;28;20089;-75
2021/06/26 04:15:06;;;;;;;9.90;7.18;;;;;;;26.80;48.37;100095.91;5094051;28;20044;-72
2021/06/26 04:17:34;;;;;;;9.27;7.57;;;;;;;26.89;47.92;100096.59;5093713;28;20119;-73
2021/06/26 04:20:02;;;;;;;10.00;6.97;;;;;;;27.28;47.06;100087.78;5093866;28;20047;-74
2021/06/26 04:22:31;;;;;;;10.10;7.28;;;;;;;27.47;46.45;100091.63;5093722;28;20054;-71
2021/06/26 04:24:59;;;;;;;9.32;6.85;;;;;;;27.55;46.11;100089.56;5094105;28;20427;-75
2021/06/26 04:27:27;;;;;;;10.40;7.00;;;;;;;27.80;45.49;100087.13;5093613;28;20567;-74
2021/06/26 04:29:56;;;;;;;12.52;7.13;;;;;;;28.17;44.76;100084.81;5093645;28;20483;-75
2021/06/26 04:32:26;;;;;;;10.13;6.88;;;;;;;28.03;44.40;100077.66;5093730;28;20429;-76
2021/06/26 04:34:55;;;;;;;9.93;7.00;;;;;;;27.74;44.89;100073.41;5093739;28;20044;-77
2021/06/26 04:37:24;;;;;;;8.63;7.20;;;;;;;27.34;46.06;100074.13;5093575;28;20101;-74
2021/06/26 04:39:52;;;;;;;9.65;6.93;;;;;;;27.81;44.92;100080.59;5093423;28;20056;-73
2021/06/26 04:42:22;;;;;;;10.73;7.13;;;;;;;27.58;45.28;100080.06;5093618;28;20097;-73
2021/06/26 04:44:50;;;;;;;10.18;6.95;;;;;;;27.84;44.69;100079.31;5093109;28;20044;-74
2021/06/26 04:47:19;;;;;;;9.60;7.57;;;;;;;28.18;44.34;100086.50;5075375;28;20052;-76
2021/06/26 04:49:49;;;;;;;11.75;7.68;;;;;;;28.27;43.80;100074.28;5093298;28;20881;-72
2021/06/26 04:52:17;;;;;;;9.65;7.15;;;;;;;28.58;42.87;100075.56;5092753;28;20093;-75
2021/06/26 04:54:45;;;;;;;8.40;6.53;;;;;;;28.52;42.84;100083.56;5074886;28;20055;-76
2021/06/26 04:57:14;;;;;;;9.35;7.07;;;;;;;28.84;42.50;100080.97;5093247;28;20071;-71
2021/06/26 04:59:43;;;;;;;9.55;7.28;;;;;;;29.04;41.58;100069.94;5092837;28;20043;-74
2021/06/26 05:02:11;;;;;;;9.95;7.43;;;;;;;28.55;42.94;100076.81;5075297;28;20052;-75
2021/06/26 05:04:39;;;;;;;9.63;7.60;;;;;;;28.75;42.39;100087.75;5093037;28;20127;-80
2021/06/26 05:07:09;;;;;;;11.10;7.28;;;;;;;29.04;41.89;100087.28;5093124;28;20101;-72
2021/06/26 05:09:37;;;;;;;10.23;7.07;;;;;;;29.41;40.98;100087.53;5092775;28;20059;-77
2021/06/26 05:12:09;;;;;;;9.77;7.85;;;;;;;28.56;42.63;100085.88;5093075;28;20048;-73
2021/06/26 05:14:37;;;;;;;10.45;7.00;;;;;;;29.16;41.68;100083.88;5074372;28;20051;-77
2021/06/26 05:17:05;;;;;;;9.88;7.45;;;;;;;29.08;41.09;100072.06;5093159;28;20595;-74
2021/06/26 05:19:34;;;;;;;10.40;7.38;;;;;;;29.89;40.01;100067.84;5075024;28;20395;-74
2021/06/26 05:22:03;;;;;;;9.50;7.28;;;;;;;30.12;39.29;100079.13;5092936;28;20074;-72
2021/06/26 05:24:33;;;;;;;11.02;7.13;;;;;;;30.28;38.58;100083.22;5092858;28;20062;-75
2021/06/26 05:27:01;;;;;;;11.10;7.28;;;;;;;29.88;39.60;100090.91;5092813;28;20114;-72
2021/06/26 05:29:30;;;;;;;11.63;7.50;;;;;;;29.97;39.42;100080.47;5092675;28;20444;-78
2021/06/26 05:31:58;;;;;;;11.10;8.00;;;;;;;30.10;39.18;100088.66;5093024;28;20387;-73
2021/06/26 05:34:27;;;;;;;11.63;7.63;;;;;;;29.91;39.28;100083.03;5092728;28;20040;-73
2021/06/26 05:36:55;;;;;;;10.48;7.40;;;;;;;29.66;40.14;100095.06;5092668;28;20047;-73
2021/06/26 05:39:23;;;;;;;10.60;7.88;;;;;;;29.54;39.77;100095.78;5092689;28;20040;-74
2021/06/26 05:41:53;;;;;;;8.35;6.90;;;;;;;29.74;40.07;100094.81;5092494;28;20040;-72
2021/06/26 05:44:24;;;;;;;11.13;7.60;;;;;;;30.18;39.04;100094.72;5092707;28;20055;-72
2021/06/26 05:46:53;;;;;;;10.73;7.80;;;;;;;29.90;39.10;100097.84;5092367;28;20059;-72
2021/06/26 05:49:21;;;;;;;11.65;7.68;;;;;;;30.15;38.71;100091.59;5092490;28;20054;-72
2021/06/26 05:51:49;;;;;;;10.98;7.70;;;;;;;30.67;37.92;100092.19;5092276;28;20078;-72
2021/06/26 05:54:17;;;;;;;10.13;7.20;;;;;;;30.88;37.31;100094.50;5092726;28;20131;-73
2021/06/26 05:56:46;;;;;;;10.57;7.57;;;;;;;30.29;37.81;100095.91;5091808;28;20097;-74
2021/06/26 05:59:16;;;;;;;12.27;7.90;;;;;;;30.11;37.95;100104.94;5092639;28;20048;-74
2021/06/26 06:01:44;;;;;;;9.82;7.65;;;;;;;30.19;37.90;100101.06;5092430;28;20043;-76
2021/06/26 06:04:13;;;;;;;10.02;7.45;;;;;;;30.10;38.57;100100.50;5095338;28;20044;-77
2021/06/26 06:06:41;;;;;;;8.65;7.38;;;;;;;30.19;38.13;100103.81;5096602;28;20177;-75
2021/06/26 06:09:10;;;;;;;9.73;7.50;;;;;;;30.18;37.99;100100.22;5096593;28;20048;-74
2021/06/26 06:11:38;;;;;;;9.88;7.60;;;;;;;30.19;37.78;100099.16;5096207;28;20044;-75
2021/06/26 06:14:07;;;;;;;10.90;8.15;;;;;;;30.04;37.91;100101.38;5096323;28;20051;-78
2021/06/26 06:16:37;;;;;;;10.68;7.57;;;;;;;30.79;36.60;100104.16;5078281;28;20052;-78
2021/06/26 06:19:05;;;;;;;9.52;7.78;;;;;;;30.94;36.67;100106.53;5096371;28;20048;-75
2021/06/26 06:21:34;;;;;;;10.05;8.15;;;;;;;30.63;37.04;100119.31;5095928;28;20040;-75
2021/06/26 06:24:02;;;;;;;12.18;7.60;;;;;;;31.47;35.88;100120.56;5096013;28;20072;-76
2021/06/26 06:26:30;;;;;;;10.27;7.53;;;;;;;31.78;35.11;100115.91;5096291;28;20051;-79
2021/06/26 06:28:59;;;;;;;11.63;7.97;;;;;;;31.76;35.27;100124.44;5095914;28;20044;-79
2021/06/26 06:31:29;;;;;;;9.30;7.53;;;;;;;31.95;34.68;100136.25;5095564;28;20036;-74
2021/06/26 06:33:59;;;;;;;10.52;7.82;;;;;;;31.63;35.25;100125.41;5096065;28;20093;-74
2021/06/26 06:36:31;;;;;;;11.05;7.82;;;;;;;32.29;34.24;100129.13;5095836;28;20044;-70
2021/06/26 06:39:00;;;;;;;9.07;7.75;;;;;;;31.23;35.87;100125.06;5095909;28;20044;-74
2021/06/26 06:41:28;;;;;;;10.85;7.82;;;;;;;30.74;36.95;100132.34;5095640;28;20048;-71
2021/06/26 06:43:56;;;;;;;9.68;7.88;;;;;;;30.03;38.32;100137.34;5077469;28;20052;-71
2021/06/26 06:46:24;;;;;;;11.50;8.07;;;;;;;30.52;38.02;100135.72;5095997;28;20081;-71
2021/06/26 06:48:55;;;;;;;12.10;7.40;;;;;;;31.15;36.82;100128.09;5095404;28;20036;-70
2021/06/26 06:51:24;;;;;;;10.57;8.52;;;;;;;30.82;37.21;100138.66;5095445;28;20051;-74
2021/06/26 06:53:53;;;;;;;8.98;7.70;;;;;;;31.42;36.42;100130.56;5095404;28;20410;-73
2021/06/26 06:56:21;;;;;;;11.35;7.88;;;;;;;30.85;36.88;100136.28;5095378;28;20094;-74
2021/06/26 06:58:49;;;;;;;12.30;7.95;;;;;;;30.29;37.96;100147.31;5095475;28;20048;-73
2021/06/26 07:01:18;;;;;;;12.35;8.18;;;;;;;30.38;38.11;100148.72;5095542;28;20040;-76
2021/06/26 07:03:46;;;;;;;11.75;8.35;;;;;;;29.23;40.11;100153.34;5095010;28;20044;-73
2021/06/26 07:06:14;;;;;;;12.38;8.27;;;;;;;28.99;40.62;100144.75;5095461;28;20044;-72
2021/06/26 07:08:44;;;;;;;12.23;8.25;;;;;;;29.02;41.77;100157.19;5076695;28;20063;-71
2021/06/26 07:11:12;;;;;;;10.60;7.80;;;;;;;29.11;40.80;100147.66;5076873;28;20052;-72
2021/06/26 07:13:41;;;;;;;11.88;8.27;;;;;;;28.72;41.73;100152.16;5094676;28;20075;-75
2021/06/26 07:16:09;;;;;;;10.55;7.90;;;;;;;28.16;42.27;100146.19;5094262;28;20048;-69
2021/06/26 07:18:38;;;;;;;12.05;8.60;;;;;;;27.99;43.49;100151.25;5094919;28;20380;-72
2021/06/26 07:21:06;;;;;;;13.05;8.23;;;;;;;28.10;43.37;100149.78;5094959;28;20036;-71
2021/06/26 07:23:34;;;;;;;12.75;8.65;;;;;;;27.95;43.65;100148.06;5094909;28;20127;-71
2021/06/26 07:26:04;;;;;;;10.73;8.50;;;;;;;27.96;43.21;100137.94;5076995;28;20060;-73
2021/06/26 07:28:32;;;;;;;11.55;8.18;;;;;;;27.82;44.81;100142.56;5077014;28;20044;-72
2021/06/26 07:31:03;;;;;;;13.90;8.90;;;;;;;27.48;45.89;100128.94;5094210;28;20470;-76
2021/06/26 07:33:32;;;;;;;10.02;7.78;;;;;;;27.24;44.58;100131.16;5075214;28;20041;-74
2021/06/26 07:36:00;;;;;;;13.38;8.30;;;;;;;27.19;45.31;100119.97;5075183;28;20049;-74
2021/06/26 07:38:29;;;;;;;13.75;8.45;;;;;;;27.51;44.99;100128.53;5056718;28;20388;-75
2021/06/26 07:40:57;;;;;;;13.88;9.25;;;;;;;27.57;45.22;100130.44;5074426;28;20044;-74
2021/06/26 07:43:27;;;;;;;11.10;8.73;;;;;;;27.54;44.58;100122.63;5075136;28;20410;-73
2021/06/26 07:45:55;;;;;;;10.23;8.50;;;;;;;27.40;44.80;100140.91;5075853;28;20044;-73
2021/06/26 07:48:24;;;;;;;15.52;9.27;;;;;;;27.12;45.77;100123.69;5074150;28;20051;-73
2021/06/26 07:50:52;;;;;;;11.73;8.82;;;;;;;27.36;45.26;100132.25;5082181;28;20058;-74
2021/06/26 07:53:21;;;;;;;10.25;8.32;;;;;;;27.51;44.66;100132.13;5094402;28;20044;-77
2021/06/26 07:55:52;;;;;;;11.25;8.13;;;;;;;27.25;45.62;100118.31;5094215;28;20513;-75
2021/06/26 07:58:21;;;;;;;10.88;9.02;;;;;;;27.35;45.47;100127.84;5094266;28;20124;-72
2021/06/26 08:00:51;;;;;;;13.00;9.32;;;;;;;27.18;45.88;100126.47;5093893;28;20059;-71
2021/06/26 08:03:20;;;;;;;12.20;8.57;;;;;;;27.26;43.78;100123.56;5094489;28;20060;-71
2021/06/26 08:05:50;;;;;;;12.25;8.68;;;;;;;27.12;45.03;100121.84;5094087;28;20101;-75
2021/06/26 08:08:18;;;;;;;13.63;8.93;;;;;;;27.38;44.57;100123.84;5093986;28;20395;-74
2021/06/26 08:10:48;;;;;;;12.68;8.55;;;;;;;27.36;44.88;100121.31;5093721;28;20503;-74
2021/06/26 08:13:17;;;;;;;12.07;9.18;;;;;;;27.50;44.81;100121.34;5094176;28;20047;-75
2021/06/26 08:15:47;;;;;;;14.00;8.93;;;;;;;27.03;45.49;100120.31;5093502;28;20040;-73
2021/06/26 08:18:19;;;;;;;13.40;9.00;;;;;;;27.01;45.34;100114.97;5094123;28;20040;-73
2021/06/26 08:20:47;;;;;;;13.70;9.13;;;;;;;26.96;45.03;100122.13;5093778;28;20047;-74
2021/06/26 08:23:16;;;;;;;15.20;9.30;;;;;;;26.81;45.30;100125.81;5093642;28;20093;-77
2021/06/26 08:25:44;;;;;;;12.20;8.80;;;;;;;27.14;45.02;100127.94;5074940;28;20044;-73
2021/06/26 08:28:12;;;;;;;12.95;8.77;;;;;;;27.07;44.91;100125.16;5093912;28;20043;-71
2021/06/26 08:30:41;;;;;;;13.82;8.90;;;;;;;26.92;45.07;100123.56;5093246;28;20058;-79
2021/06/26 08:33:09;;;;;;;13.13;8.68;;;;;;;26.94;45.45;100121.50;5093706;28;20051;-73
2021/06/26 08:35:42;;;;;;;10.55;8.40;;;;;;;27.18;44.24;100118.28;5093747;28;20044;-75
2021/06/26 08:38:10;;;;;;;10.63;8.07;;;;;;;27.30;44.01;100113.06;5094015;28;20040;-73
2021/06/26 08:40:40;;;;;;;12.90;8.38;;;;;;;27.07;45.04;100107.91;5093730;28;20139;-70
2021/06/26 08:43:08;;;;;;;11.43;8.30;;;;;;;27.31;44.28;100112.00;5093754;28;20063;-74
2021/06/26 08:45:38;;;;;;;12.88;8.50;;;;;;;27.32;43.88;100109.09;5093734;28;20044;-73
2021/06/26 08:48:07;;;;;;;9.88;7.80;;;;;;;27.47;42.86;100110.81;5093477;28;20397;-71
2021/06/26 08:50:35;;;;;;;10.57;7.47;;;;;;;27.32;43.54;100122.78;5093405;28;20443;-74
2021/06/26 08:53:05;;;;;;;13.85;8.40;;;;;;;27.51;42.91;100117.59;5092819;28;20036;-76
2021/06/26 08:55:34;;;;;;;8.93;7.13;;;;;;;27.52;42.37;100116.53;5092477;28;20039;-73
2021/06/26 08:58:07;;;;;;;9.93;7.68;;;;;;;27.71;41.75;100124.00;5093157;28;20075;-74
2021/06/26 09:00:35;;;;;;;10.27;7.63;;;;;;;27.82;41.55;100117.06;5093524;28;20044;-75
2021/06/26 09:03:08;;;;;;;8.77;6.68;;;;;;;27.75;40.47;100099.75;5093088;28;20342;-70
2021/06/26 09:05:40;;;;;;;9.77;6.95;;;;;;;27.96;39.79;100096.81;5093177;28;20055;-74
2021/06/26 09:08:11;;;;;;;9.07;7.07;;;;;;;28.11;40.61;100102.13;5093566;28;20469;-73
2021/06/26 09:10:41;;;;;;;11.70;6.95;;;;;;;28.10;40.28;100094.97;5093168;28;20044;-73
2021/06/26 09:13:18;;;;;;;9.43;6.82;;;;;;;28.30;40.01;100095.84;5093365;28;20036;-72
2021/06/26 09:15:47;;;;;;;11.90;7.38;;;;;;;28.24;41.61;100092.00;5092917;28;20069;-76
2021/06/26 09:18:18;;;;;;;10.80;6.45;;;;;;;28.35;40.56;100101.53;5092998;28;20547;-69
2021/06/26 09:20:49;;;;;;;9.63;6.80;;;;;;;28.14;40.22;100101.69;5092896;28;20055;-71
2021/06/26 09:23:32;;;;;;;10.27;6.53;;;;;;;28.13;39.18;100092.63;5093157;28;20047;-70
2021/06/26 09:26:05;;;;;;;7.90;5.30;;;;;;;28.17;38.35;100099.38;5092721;28;20036;-70
2021/06/26 09:28:34;;;;;;;10.15;5.85;;;;;;;28.23;39.00;100105.94;5092545;28;20044;-77
2021/06/26 09:31:05;;;;;;;8.35;6.13;;;;;;;27.80;39.96;100103.56;5092654;28;20036;-77
2021/06/26 09:33:33;;;;;;;9.38;6.50;;;;;;;27.82;40.50;100093.25;5093180;28;20134;-75
2021/06/26 09:36:06;;;;;;;8.98;6.30;;;;;;;28.09;40.04;100091.38;5092559;28;20070;-73
2021/06/26 09:38:38;;;;;;;9.27;6.18;;;;;;;28.24;39.70;100077.44;5094730;28;20119;-73
2021/06/26 09:41:15;;;;;;;9.60;6.45;;;;;;;28.62;38.99;100087.78;5096737;28;20046;-72
2021/06/26 09:43:43;;;;;;;10.60;7.80;;;;;;;28.36;39.64;100084.00;5079108;28;20070;-70
2021/06/26 09:46:13;;;;;;;9.90;6.68;;;;;;;28.41;39.73;100086.13;5096963;28;20044;-72
2021/06/26 09:48:59;;;;;;;9.10;6.40;;;;;;;28.75;38.88;100074.03;5078838;28;20457;-73
2021/06/26 09:51:29;;;;;;;8.43;6.22;;;;;;;28.60;38.95;100084.41;5096564;28;20406;-69
2021/06/26 09:54:01;;;;;;;9.27;6.53;;;;;;;28.52;38.62;100100.03;5096832;28;20445;-72
2021/06/26 09:56:43;;;;;;;8.73;6.30;;;;;;;28.22;38.97;100093.28;5097061;28;20052;-71
2021/06/26 09:59:13;;;;;;;9.27;6.97;;;;;;;28.67;38.34;100091.59;5078899;28;20076;-73
2021/06/26 10:01:46;;;;;;;8.82;6.70;;;;;;;28.71;38.40;100092.00;5096643;28;20058;-74
2021/06/26 10:04:17;;;;;;;9.32;7.25;;;;;;;28.81;38.06;100103.38;5096610;28;20425;-71
2021/06/26 10:06:45;;;;;;;10.68;6.72;;;;;;;28.79;37.92;100089.03;5096546;28;20040;-70
2021/06/26 10:09:15;;;;;;;8.65;6.78;;;;;;;28.89;37.86;100091.34;5078012;28;20053;-70
2021/06/26 10:11:44;;;;;;;8.55;6.47;;;;;;;29.23;36.95;100079.19;5096225;28;20039;-69
2021/06/26 10:14:13;;;;;;;9.13;6.95;;;;;;;29.02;36.81;100089.41;5096111;28;20036;-69
2021/06/26 10:16:42;;;;;;;7.35;5.80;;;;;;;28.90;36.93;100085.63;5096521;28;20036;-69
2021/06/26 10:19:12;;;;;;;7.95;5.82;;;;;;;28.94;36.75;100086.88;5095969;28;20070;-72
2021/06/26 10:21:44;;;;;;;11.40;7.05;;;;;;;28.68;37.46;100097.91;5096168;28;20494;-71
2021/06/26 10:24:16;;;;;;;8.35;6.75;;;;;;;28.52;37.63;100088.22;5096315;28;20040;-71
2021/06/26 10:26:45;;;;;;;8.37;6.43;;;;;;;28.71;36.83;100079.09;5096120;28;20161;-68
2021/06/26 10:29:15;;;;;;;9.05;6.03;;;;;;;28.75;36.70;100072.13;5095888;28;20383;-73
2021/06/26 10:31:45;;;;;;;9.60;6.10;;;;;;;28.96;36.91;100087.53;5095988;28;20068;-71
2021/06/26 10:34:16;;;;;;;8.45;6.70;;;;;;;29.00;36.43;100091.53;5096347;28;20068;-71
2021/06/26 10:36:51;;;;;;;9.95;7.00;;;;;;;28.90;36.84;100084.81;5078146;28;20051;-71
2021/06/26 10:39:24;;;;;;;10.07;6.72;;;;;;;28.91;37.08;100081.00;5095919;28;20036;-72
2021/06/26 10:42:03;;;;;;;8.23;6.75;;;;;;;28.46;37.03;100092.66;5095179;28;20119;-73
2021/06/26 10:44:47;;;;;;;9.68;6.55;;;;;;;28.67;37.47;100090.75;5095896;28;20398;-72
2021/06/26 10:47:16;;;;;;;9.35;6.68;;;;;;;29.13;36.61;100087.03;5095631;28;20040;-72
2021/06/26 10:49:47;;;;;;;10.43;8.00;;;;;;;28.88;37.79;100087.72;5095534;28;20468;-73
2021/06/26 10:52:18;;;;;;;9.93;6.85;;;;;;;29.18;36.09;100079.00;5094961;28;20051;-72
2021/06/26 10:54:59;;;;;;;9.85;6.90;;;;;;;29.26;35.76;100073.28;5095533;28;20047;-74
2021/06/26 10:57:28;;;;;;;8.73;6.32;;;;;;;28.72;35.66;100088.19;5092995;28;20467;-75
2021/06/26 11:00:01;;;;;;;10.02;7.18;;;;;;;28.88;35.68;100071.25;5095110;28;20467;-76
2021/06/26 11:02:41;;;;;;;8.02;5.93;;;;;;;29.09;35.01;100078.41;5095716;28;20132;-75
2021/06/26 11:05:14;;;;;;;14.07;7.50;;;;;;;29.22;35.31;100075.59;5094495;28;20470;-77
2021/06/26 11:07:43;;;;;;;9.40;6.53;;;;;;;29.34;35.41;100081.25;5077638;28;20491;-77
2021/06/26 11:10:17;;;;;;;8.88;6.82;;;;;;;29.33;35.35;100065.81;5076629;28;20063;-75
2021/06/26 11:12:48;;;;;;;8.93;7.40;;;;;;;29.35;35.63;100082.94;5095054;28;20044;-75
2021/06/26 11:15:26;;;;;;;8.47;6.93;;;;;;;29.17;35.66;100080.06;5077423;28;20052;-75
2021/06/26 11:17:56;;;;;;;9.85;7.30;;;;;;;29.28;35.37;100071.97;5094832;28;20040;-75
2021/06/26 11:20:26;;;;;;;9.13;6.78;;;;;;;29.17;35.60;100066.34;5077255;28;20127;-74
2021/06/26 11:22:56;;;;;;;9.35;7.07;;;;;;;29.11;34.59;100073.53;5094530;28;20036;-77
2021/06/26 11:25:30;;;;;;;8.85;5.97;;;;;;;29.42;34.72;100059.00;5077120;28;20070;-76
2021/06/26 11:28:04;;;;;;;8.40;6.45;;;;;;;29.29;35.03;100059.09;5094773;28;20048;-77
2021/06/26 11:30:35;;;;;;;8.65;6.88;;;;;;;29.49;34.65;100053.53;5095021;28;20056;-76
2021/06/26 11:33:06;;;;;;;8.32;6.53;;;;;;;29.52;34.31;100062.16;5094691;28;20032;-76